Flight Track Log - Related Links

Times and Time Zones

All times are in EDT time to prevent confusion due to time zone crossing. See the UAL563 flight status page for this flight to view local times or setup timezone preferences in your user account.

Time Position Orientation Groundspeed Altitude Reporting Facility
EDT Latitude Longitude Course Direction KTS MPH feet Rate Location/Type
Thu 07:15:21 PM 40.6500 -74.1833 288° West 168 193 1,600  Level New York TRACON
Thu 07:16:22 PM 40.6667 -74.2500 288° West 231 266 2,800 2,083 Climbing New York TRACON
Thu 07:17:22 PM 40.7167 -74.3000 323° Northwest 263 303 5,800 3,025 Climbing New York TRACON
Thu 07:18:21 PM 40.7833 -74.3667 323° Northwest 269 310 8,800 2,200 Climbing New York TRACON
Thu 07:19:22 PM 40.8500 -74.4167 330° Northwest 285 328 10,200 1,241 Climbing New York TRACON
Thu 07:20:17 PM 40.9097 -74.4750 324° Northwest 332 382 11,200 1,895 Climbing New York Center
Thu 07:21:16 PM 40.9886 -74.5536 323° Northwest 354 407 13,800 2,269 Climbing New York Center
Thu 07:22:16 PM 41.0733 -74.6325 325° Northwest 365 420 15,700 1,550 Climbing New York Center
Thu 07:23:16 PM 41.1417 -74.7081 320° Northwest 365 420 16,900 1,412 Climbing New York Center
Thu 07:24:15 PM 41.1997 -74.8383 301° West 364 419 18,500 1,563 Climbing New York Center
Thu 07:25:15 PM 41.2442 -74.9403 300° West 364 419 20,000 1,550 Climbing New York Center
Thu 07:26:15 PM 41.2961 -75.0650 299° West 375 432 21,600 1,587 Climbing New York Center
Thu 07:27:16 PM 41.3497 -75.1900 300° West 383 441 23,200 1,388 Climbing New York Center
Thu 07:28:16 PM 41.4031 -75.3181 299° West 383 441 24,400 1,210 Climbing New York Center
Thu 07:29:15 PM 41.4586 -75.4464 300° West 390 449 25,600 1,160 Climbing New York Center
Thu 07:30:15 PM 41.5053 -75.5825 295° West 390 449 26,700 900 Climbing New York Center
Thu 07:31:15 PM 41.5453 -75.7211 291° West 400 460 27,400 893 Climbing New York Center
Thu 07:32:16 PM 41.5850 -75.8628 291° West 405 466 28,500 1,091 Climbing New York Center
Thu 07:33:16 PM 41.6267 -76.0075 291° West 410 472 29,600 744 Climbing New York Center
Thu 07:34:17 PM 41.6661 -76.1522 290° West 415 478 30,000 145 Climbing New York Center
Thu 07:36:02 PM 41.7361 -76.4114 290° West 414 476 30,000  Level Cleveland Center
Thu 07:37:02 PM 41.7789 -76.5536 292° West 414 476 30,000  Level Cleveland Center
Thu 07:38:02 PM 41.8192 -76.6989 290° West 414 476 30,000  Level Cleveland Center
Thu 07:39:02 PM 41.8575 -76.8414 290° West 419 482 30,000  Level Cleveland Center
Thu 07:40:02 PM 41.8953 -76.9844 290° West 419 482 30,000  Level Cleveland Center
Thu 07:41:02 PM 41.9372 -77.1272 292° West 419 482 30,000 100 Level Cleveland Center
Thu 07:42:02 PM 41.9747 -77.2706 289° West 419 482 30,200 500 Climbing Cleveland Center
Thu 07:43:02 PM 42.0122 -77.4167 289° West 419 482 31,000 800 Climbing Cleveland Center
Thu 07:44:02 PM 42.0497 -77.5631 289° West 419 482 31,800 500 Climbing Cleveland Center
Thu 07:45:02 PM 42.0933 -77.7206 291° West 419 482 32,000 100 Climbing Cleveland Center
Thu 07:46:02 PM 42.1322 -77.8617 290° West 414 476 32,000  Level Cleveland Center
Thu 07:47:02 PM 42.1686 -78.0031 289° West 414 476 32,000  Level Cleveland Center
Thu 07:48:02 PM 42.2072 -78.1472 290° West 409 471 32,000 50 Level Cleveland Center
Thu 07:49:02 PM 42.2436 -78.2917 289° West 409 471 32,100  Climbing Cleveland Center
Thu 07:50:02 PM 42.2797 -78.4333 289° West 404 465 32,000 -50 Descending Cleveland Center
Thu 07:51:02 PM 42.3156 -78.5756 289° West 398 458 32,000  Level Cleveland Center
Thu 07:52:02 PM 42.3514 -78.7175 289° West 403 464 32,000  Level Cleveland Center
Thu 07:53:02 PM 42.3889 -78.8600 290° West 403 464 32,000  Level Cleveland Center
Thu 07:54:02 PM 42.4244 -79.0053 288° West 403 464 32,000  Level Cleveland Center
Thu 07:55:02 PM 42.4639 -79.1561 290° West 409 471 32,000  Level Cleveland Center
Thu 07:56:02 PM 42.4947 -79.3047 286° West 409 471 32,000 50 Level Cleveland Center
Thu 07:57:02 PM 42.5006 -79.4594 273° West 416 479 32,100  Climbing Cleveland Center
Thu 07:58:02 PM 42.5103 -79.6142 275° West 416 479 32,000 -50 Descending Cleveland Center
Thu 07:59:02 PM 42.5178 -79.7664 274° West 416 479 32,000  Level Cleveland Center
Thu 08:00:02 PM 42.5250 -79.9156 274° West 405 466 32,000  Level Cleveland Center
Thu 08:01:02 PM 42.5278 -80.0506 272° West 405 466 32,000  Level Cleveland Center
Thu 08:02:02 PM 42.5347 -80.2169 273° West 405 466 32,000  Level Cleveland Center
Thu 08:03:02 PM 42.5414 -80.3692 273° West 405 466 32,000  Level Cleveland Center
Thu 08:04:02 PM 42.5478 -80.5211 273° West 405 466 32,000  Level Cleveland Center
Thu 08:05:02 PM 42.5519 -80.6761 272° West 405 466 32,000  Level Cleveland Center
Thu 08:06:02 PM 42.5578 -80.8228 273° West 400 460 32,000  Level Cleveland Center
Thu 08:07:02 PM 42.5636 -80.9806 273° West 406 467 32,000  Level Cleveland Center
Thu 08:08:02 PM 42.5672 -81.1272 272° West 406 467 32,000  Level Cleveland Center
Thu 08:09:02 PM 42.5747 -81.2825 274° West 406 467 32,000  Level Cleveland Center
Thu 08:10:02 PM 42.5822 -81.4319 274° West 401 461 32,000  Level Cleveland Center
Thu 08:11:02 PM 42.6061 -81.5761 283° West 401 461 32,000  Level Cleveland Center
Thu 08:12:02 PM 42.6297 -81.7233 282° West 406 467 32,000  Level Cleveland Center
Thu 08:13:02 PM 42.6533 -81.8592 283° West 406 467 32,000  Level Cleveland Center
Thu 08:14:02 PM 42.6786 -82.0067 283° West 406 467 32,000  Level Cleveland Center
Thu 08:15:02 PM 42.7058 -82.1597 284° West 411 473 32,000  Level Cleveland Center
Thu 08:16:02 PM 42.7308 -82.3072 283° West 411 473 32,000  Level Cleveland Center
Thu 08:17:02 PM 42.7556 -82.4581 283° West 411 473 32,000  Level Cleveland Center
Thu 08:18:02 PM 42.7800 -82.6058 283° West 411 473 32,000  Level Cleveland Center
Thu 08:19:02 PM 42.8044 -82.7536 283° West 411 473 32,000 -50 Level Cleveland Center
Thu 08:20:02 PM 42.8289 -82.8961 283° West 406 467 31,900  Descending Cleveland Center
Thu 08:21:02 PM 42.8528 -83.0442 282° West 401 461 32,000 50 Climbing Cleveland Center
Thu 08:22:02 PM 42.8767 -83.1925 282° West 395 455 32,000  Level Cleveland Center
Thu 08:23:02 PM 42.8983 -83.3381 282° West 395 455 32,000  Level Cleveland Center
Thu 08:24:02 PM 42.9239 -83.4867 283° West 395 455 32,000  Level Cleveland Center
Thu 08:25:02 PM 42.9508 -83.6553 282° West 400 460 32,000  Level Cleveland Center
Thu 08:26:02 PM 42.9717 -83.8011 281° West 400 460 32,000  Level Cleveland Center
Thu 08:27:02 PM 42.9842 -83.9494 277° West 395 455 32,000  Level Cleveland Center
Thu 08:28:02 PM 43.0008 -84.0950 279° West 395 455 32,000  Level Cleveland Center
Thu 08:29:02 PM 43.0150 -84.2436 277° West 389 448 32,000  Level Cleveland Center
Thu 08:30:17 PM 43.0319 -84.3969 279° West 387 445 32,000  Level Chicago Center
Thu 08:31:19 PM 43.0489 -84.5722 278° West 388 447 32,000  Level Chicago Center
Thu 08:32:21 PM 43.0617 -84.7186 277° West 390 449 32,000  Level Chicago Center
Thu 08:33:23 PM 43.0753 -84.8653 277° West 391 450 32,000 48 Level Chicago Center
Thu 08:34:26 PM 43.0875 -85.0133 276° West 391 450 32,100 672 Climbing Chicago Center
Thu 08:35:28 PM 43.0864 -85.1644 269° West 399 459 33,400 1,258 Climbing Chicago Center
Thu 08:36:30 PM 43.0856 -85.3081 270° West 384 442 34,700 919 Climbing Chicago Center
Thu 08:37:32 PM 43.0911 -85.4800 273° West 382 440 35,300 532 Climbing Chicago Center
Thu 08:38:34 PM 43.1069 -85.6247 279° West 385 443 35,800 339 Climbing Chicago Center
Thu 08:39:36 PM 43.1222 -85.7689 278° West 386 444 36,000 97 Climbing Chicago Center
Thu 08:40:38 PM 43.1378 -85.9094 279° West 383 441 36,000  Level Chicago Center
Thu 08:41:40 PM 43.1553 -86.0756 278° West 380 437 36,000  Level Chicago Center
Thu 08:42:42 PM 43.1706 -86.2161 279° West 379 436 36,000  Level Chicago Center
Thu 08:43:44 PM 43.1856 -86.3594 278° West 377 434 36,000  Level Chicago Center
Thu 08:44:46 PM 43.1997 -86.4983 278° West 379 436 36,000  Level Chicago Center
Thu 08:45:49 PM 43.2144 -86.6425 278° West 383 441 36,000  Level Chicago Center
Thu 08:46:51 PM 43.2317 -86.8133 278° West 381 438 36,000  Level Chicago Center
Thu 08:47:53 PM 43.2450 -86.9556 277° West 379 436 36,000  Level Chicago Center
Thu 08:48:55 PM 43.2592 -87.0961 278° West 375 432 36,000  Level Chicago Center
Thu 08:49:57 PM 43.2733 -87.2386 278° West 378 435 36,000  Level Chicago Center
Thu 08:50:59 PM 43.2886 -87.4017 277° West 372 428 36,000  Level Chicago Center
Thu 08:52:01 PM 43.3003 -87.5439 276° West 375 432 36,000  Level Chicago Center
Thu 08:53:03 PM 43.3142 -87.6875 278° West 377 434 36,000  Level Chicago Center
Thu 08:54:05 PM 43.3264 -87.8317 277° West 378 435 36,000  Level Chicago Center
Thu 08:55:07 PM 43.3397 -87.9753 277° West 379 436 36,000  Level Chicago Center
Thu 08:56:09 PM 43.3544 -88.1425 277° West 376 433 36,000  Level Chicago Center
Thu 08:57:12 PM 43.3664 -88.2861 277° West 376 433 36,000  Level Chicago Center
Thu 08:58:14 PM 43.3800 -88.4356 277° West 379 436 36,000  Level Chicago Center
Thu 08:59:16 PM 43.3914 -88.5856 276° West 379 436 36,000  Level Chicago Center
Thu 09:00:18 PM 43.4025 -88.7269 276° West 380 437 36,000  Level Chicago Center
Thu 09:01:20 PM 43.4144 -88.8708 277° West 380 437 36,000  Level Chicago Center
Thu 09:02:22 PM 43.4258 -89.0128 276° West 375 432 36,000  Level Chicago Center
Thu 09:03:24 PM 43.4375 -89.1575 276° West 378 435 36,000  Level Chicago Center
Thu 09:04:26 PM 43.4486 -89.3228 275° West 373 429 36,000  Level Chicago Center
Thu 09:05:28 PM 43.4600 -89.4636 276° West 371 427 36,000  Level Chicago Center
Thu 09:06:30 PM 43.4692 -89.6025 275° West 367 422 36,000  Level Chicago Center
Thu 09:07:32 PM 43.4800 -89.7431 276° West 367 422 36,000  Level Chicago Center
Thu 09:08:34 PM 43.4889 -89.8803 275° West 362 417 36,000  Level Chicago Center
Thu 09:09:36 PM 43.5003 -90.0419 276° West 363 418 36,000  Level Chicago Center
Thu 09:10:39 PM 43.4992 -90.1831 269° West 368 423 36,000  Level Chicago Center
Thu 09:11:41 PM 43.5008 -90.3319 271° West 369 425 36,000  Level Chicago Center
Thu 09:12:43 PM 43.5011 -90.4728 270° West 371 427 36,000  Level Chicago Center
Thu 09:13:45 PM 43.5017 -90.6153 270° West 376 433 36,000  Level Chicago Center
Thu 09:14:47 PM 43.5019 -90.7547 270° West 371 427 36,000  Level Chicago Center
Thu 09:15:10 PM 43.5025 -90.7833 272° West 373 429 36,000  Level Minneapolis Center
Thu 09:16:13 PM 43.5033 -90.9536 270° West 374 430 36,000  Level Minneapolis Center
Thu 09:17:15 PM 43.5033 -91.1222 270° West 372 428 36,000  Level Minneapolis Center
Thu 09:18:17 PM 43.5039 -91.2642 270° West 374 430 36,000  Level Minneapolis Center
Thu 09:19:19 PM 43.5022 -91.4044 269° West 372 428 36,000  Level Minneapolis Center
Thu 09:20:21 PM 43.5017 -91.5458 270° West 373 429 36,000  Level Minneapolis Center
Thu 09:21:23 PM 43.5019 -91.6869 270° West 373 429 36,000  Level Minneapolis Center
Thu 09:22:25 PM 43.5003 -91.8567 269° West 374 430 36,000  Level Minneapolis Center
Thu 09:23:27 PM 43.4992 -91.9997 269° West 376 433 36,000  Level Minneapolis Center
Thu 09:24:29 PM 43.4872 -92.1392 263° West 373 429 36,000  Level Minneapolis Center
Thu 09:25:31 PM 43.4733 -92.2814 262° West 378 435 36,000  Level Minneapolis Center
Thu 09:26:33 PM 43.4575 -92.4494 263° West 374 430 36,000  Level Minneapolis Center
Thu 09:27:35 PM 43.4442 -92.5903 263° West 375 432 36,000  Level Minneapolis Center
Thu 09:28:37 PM 43.4331 -92.7033 262° West 375 432 36,000  Level Minneapolis Center
Thu 09:29:40 PM 43.4172 -92.8719 263° West 376 433 36,000  Level Minneapolis Center
Thu 09:30:42 PM 43.4031 -93.0133 262° West 378 435 36,000  Level Minneapolis Center
Thu 09:31:43 PM 43.3892 -93.1544 262° West 378 435 36,000  Level Minneapolis Center
Thu 09:32:46 PM 43.3714 -93.3228 262° West 375 432 36,000  Level Minneapolis Center
Thu 09:33:48 PM 43.3569 -93.4636 262° West 376 433 36,000  Level Minneapolis Center
Thu 09:34:50 PM 43.3428 -93.6047 262° West 376 433 36,000  Level Minneapolis Center
Thu 09:35:51 PM 43.3281 -93.7181 260° West 378 435 36,000  Level Minneapolis Center
Thu 09:36:53 PM 43.3058 -93.9144 261° West 378 435 36,000  Level Minneapolis Center
Thu 09:37:56 PM 43.2908 -94.0547 262° West 377 434 36,000  Level Minneapolis Center
Thu 09:38:57 PM 43.2828 -94.1661 264° West 375 432 36,000  Level Minneapolis Center
Thu 09:39:59 PM 43.2611 -94.3511 261° West 375 432 36,000  Level Minneapolis Center
Thu 09:41:01 PM 43.2456 -94.4947 262° West 380 437 36,000  Level Minneapolis Center
Thu 09:42:03 PM 43.2286 -94.6361 261° West 378 435 36,000  Level Minneapolis Center
Thu 09:43:05 PM 43.2133 -94.7781 262° West 377 434 36,000  Level Minneapolis Center
Thu 09:44:06 PM 43.1956 -94.9206 260° West 379 436 36,000  Level Minneapolis Center
Thu 09:45:08 PM 43.1789 -95.0611 261° West 376 433 36,000  Level Minneapolis Center
Thu 09:46:10 PM 43.1564 -95.2300 260° West 377 434 36,000  Level Minneapolis Center
Thu 09:47:12 PM 43.1253 -95.3661 253° West 375 432 36,000  Level Minneapolis Center
Thu 09:48:13 PM 43.0947 -95.5039 253° West 377 434 36,000  Level Minneapolis Center
Thu 09:49:15 PM 43.0633 -95.6417 253° West 379 436 36,000  Level Minneapolis Center
Thu 09:50:17 PM 43.0314 -95.7800 253° West 382 440 36,000  Level Minneapolis Center
Thu 09:51:19 PM 43.0008 -95.9186 253° West 381 438 36,000  Level Minneapolis Center
Thu 09:52:20 PM 42.9689 -96.0581 253° West 383 441 36,000  Level Minneapolis Center
Thu 09:53:22 PM 42.9286 -96.2247 252° West 385 443 36,000  Level Minneapolis Center
Thu 09:54:24 PM 42.8967 -96.3636 253° West 384 442 36,000  Level Minneapolis Center
Thu 09:55:25 PM 42.8647 -96.5000 252° West 380 437 36,000  Level Minneapolis Center
Thu 09:56:27 PM 42.8331 -96.6358 252° West 377 434 36,000  Level Minneapolis Center
Thu 09:57:29 PM 42.8011 -96.7706 252° West 374 430 36,000  Level Minneapolis Center
Thu 09:58:30 PM 42.7689 -96.9036 252° West 371 427 36,000  Level Minneapolis Center
Thu 09:59:32 PM 42.7372 -97.0372 252° West 371 427 36,000  Level Minneapolis Center
Thu 10:00:34 PM 42.7044 -97.1711 252° West 374 430 36,000  Level Minneapolis Center
Thu 10:02:37 PM 42.6336 -97.4592 252° West 381 438 36,000  Level Minneapolis Center
Thu 10:03:39 PM 42.6003 -97.5958 252° West 381 438 36,000  Level Minneapolis Center
Thu 10:04:40 PM 42.5675 -97.7308 252° West 379 436 36,000  Level Minneapolis Center
Thu 10:05:42 PM 42.5289 -97.8842 251° West 380 437 36,000  Level Minneapolis Center
Thu 10:06:44 PM 42.4947 -98.0183 251° West 379 436 36,000  Level Minneapolis Center
Thu 10:07:45 PM 42.4628 -98.1542 252° West 379 436 36,000  Level Minneapolis Center
Thu 10:08:47 PM 42.4294 -98.2906 252° West 381 438 36,000  Level Minneapolis Center
Thu 10:09:48 PM 42.3969 -98.4261 252° West 379 436 36,000  Level Minneapolis Center
Thu 10:10:50 PM 42.3572 -98.5894 252° West 382 440 36,000  Level Minneapolis Center
Thu 10:11:52 PM 42.3236 -98.7242 251° West 381 438 36,000  Level Minneapolis Center
Thu 10:12:53 PM 42.2897 -98.8617 252° West 385 443 36,000  Level Minneapolis Center
Thu 10:14:07 PM 42.2553 -98.9978 251° West 384 442 36,000  Level Minneapolis Center
Thu 10:15:09 PM 42.2144 -99.1617 251° West 384 442 36,000 146 Level Minneapolis Center
Thu 10:16:10 PM 42.1794 -99.2983 251° West 386 444 36,300 439 Climbing Minneapolis Center
Thu 10:17:12 PM 42.1450 -99.4361 251° West 388 447 36,900 701 Climbing Minneapolis Center
Thu 10:17:27 PM 42.1303 -99.4922 251° West 391 450 37,200 623 Climbing Denver Center
Thu 10:18:29 PM 42.0958 -99.6281 251° West 388 447 37,700 387 Climbing Denver Center
Thu 10:19:31 PM 42.0608 -99.7619 251° West 394 453 38,000 145 Climbing Denver Center
Thu 10:20:33 PM 42.0203 -99.9186 251° West 398 458 38,000  Level Denver Center
Thu 10:21:35 PM 41.9861 -100.0528 251° West 397 457 38,000  Level Denver Center
Thu 10:22:37 PM 41.9450 -100.2056 250° West 392 451 38,000  Level Denver Center
Thu 10:23:39 PM 41.9100 -100.3389 251° West 395 455 38,000  Level Denver Center
Thu 10:24:41 PM 41.8683 -100.4956 250° West 401 461 38,000 49 Level Denver Center
Thu 10:25:42 PM 41.8314 -100.6286 250° West 399 459 38,100  Climbing Denver Center
Thu 10:26:44 PM 41.7897 -100.7822 250° West 395 455 38,000 -48 Descending Denver Center
Thu 10:27:46 PM 41.7544 -100.9133 250° West 392 451 38,000  Level Denver Center
Thu 10:28:48 PM 41.7117 -101.0672 250° West 395 455 38,000  Level Denver Center
Thu 10:29:50 PM 41.6767 -101.1967 250° West 391 450 38,000  Level Denver Center
Thu 10:30:51 PM 41.6394 -101.3275 249° West 394 453 38,000  Level Denver Center
Thu 10:31:53 PM 41.5983 -101.4797 250° West 393 452 38,000  Level Denver Center
Thu 10:32:55 PM 41.5608 -101.6106 249° West 395 455 38,000  Level Denver Center
Thu 10:33:57 PM 41.5183 -101.7622 250° West 393 452 38,000  Level Denver Center
Thu 10:34:58 PM 41.4814 -101.8931 249° West 394 453 38,000  Level Denver Center
Thu 10:36:00 PM 41.4361 -102.0472 249° West 398 458 38,000  Level Denver Center
Thu 10:37:02 PM 41.3983 -102.1792 249° West 401 461 38,000  Level Denver Center
Thu 10:38:03 PM 41.3542 -102.3339 249° West 401 461 38,000  Level Denver Center
Thu 10:39:05 PM 41.3150 -102.4653 248° West 401 461 38,000  Level Denver Center
Thu 10:40:06 PM 41.2728 -102.6178 250° West 401 461 38,000  Level Denver Center
Thu 10:41:08 PM 41.2322 -102.7508 248° West 404 465 38,000  Level Denver Center
Thu 10:42:10 PM 41.1931 -102.8836 249° West 401 461 38,000  Level Denver Center
Thu 10:43:11 PM 41.1481 -103.0383 249° West 403 464 38,000  Level Denver Center
Thu 10:44:13 PM 41.1078 -103.1714 248° West 404 465 38,000  Level Denver Center
Thu 10:45:15 PM 41.0617 -103.3250 248° West 403 464 38,000  Level Denver Center
Thu 10:46:16 PM 41.0222 -103.4558 248° West 401 461 38,000  Level Denver Center
Thu 10:47:18 PM 40.9819 -103.5892 248° West 405 466 38,000  Level Denver Center
Thu 10:48:20 PM 40.9322 -103.7519 248° West 406 467 38,000  Level Denver Center
Thu 10:49:21 PM 40.8900 -103.8892 248° West 400 460 38,000  Level Denver Center
Thu 10:50:23 PM 40.8486 -104.0275 248° West 402 463 38,000  Level Denver Center
Thu 10:51:24 PM 40.8058 -104.1631 247° West 395 455 38,000  Level Denver Center
Thu 10:52:26 PM 40.7619 -104.2994 247° West 400 460 38,000  Level Denver Center
Thu 10:53:27 PM 40.7256 -104.4136 247° West 402 463 38,000  Level Denver Center
Thu 10:54:29 PM 40.6739 -104.5775 247° West 408 470 38,000  Level Denver Center
Thu 10:55:31 PM 40.6294 -104.7147 247° West 405 466 38,000  Level Denver Center
Thu 10:56:33 PM 40.5847 -104.8514 247° West 404 465 38,000  Level Denver Center
Thu 10:57:34 PM 40.5397 -104.9883 247° West 406 467 38,000  Level Denver Center
Thu 10:58:36 PM 40.4892 -105.1456 247° West 399 459 38,000  Level Denver Center
Thu 10:59:37 PM 40.4433 -105.2825 246° West 405 466 38,000  Level Denver Center
Thu 11:00:39 PM 40.3981 -105.4181 246° West 403 464 38,000  Level Denver Center
Thu 11:01:52 PM 40.3539 -105.5506 246° West 395 455 38,000  Level Denver Center
Thu 11:02:54 PM 40.3017 -105.7081 247° West 400 460 38,000  Level Denver Center
Thu 11:03:56 PM 40.2547 -105.8453 246° West 407 468 38,000 49 Level Denver Center
Thu 11:04:57 PM 40.2075 -105.9842 246° West 414 476 38,100 49 Climbing Denver Center
Thu 11:05:59 PM 40.1525 -106.1456 246° West 413 475 38,100 -49 Level Denver Center
Thu 11:07:00 PM 40.1208 -106.2367 246° West 412 474 38,000 -49 Descending Denver Center
Thu 11:08:02 PM 40.0581 -106.4186 246° West 409 471 38,000  Level Denver Center
Thu 11:09:03 PM 40.0156 -106.5447 246° West 406 467 38,000  Level Denver Center
Thu 11:10:05 PM 39.9622 -106.6964 245° Southwest 411 473 38,000  Level Denver Center
Thu 11:11:07 PM 39.9147 -106.8361 246° West 411 473 38,000  Level Denver Center
Thu 11:12:20 PM 39.8664 -106.9708 245° Southwest 413 475 38,000  Level Denver Center
Thu 11:13:22 PM 39.8092 -107.1336 245° Southwest 414 476 38,000  Level Denver Center
Thu 11:14:24 PM 39.7575 -107.2817 246° West 410 472 38,000  Level Denver Center
Thu 11:15:25 PM 39.7119 -107.4097 245° Southwest 408 470 38,000  Level Denver Center
Thu 11:16:39 PM 39.6508 -107.5800 245° Southwest 407 468 38,000  Level Denver Center
Thu 11:17:41 PM 39.6047 -107.7081 245° Southwest 408 470 38,000  Level Denver Center
Thu 11:18:42 PM 39.5511 -107.8578 245° Southwest 408 470 38,000  Level Denver Center
Thu 11:19:44 PM 39.5036 -107.9875 245° Southwest 413 475 38,000  Level Denver Center
Thu 11:20:45 PM 39.4661 -108.1164 249° West 400 460 38,000  Level Denver Center
Thu 11:21:47 PM 39.4231 -108.2697 250° West 403 464 38,000  Level Denver Center
Thu 11:22:48 PM 39.3844 -108.4044 250° West 412 474 38,000  Level Denver Center
Thu 11:24:02 PM 39.3475 -108.5356 250° West 407 468 38,000  Level Denver Center
Thu 11:25:03 PM 39.2956 -108.7131 249° West 410 472 38,000  Level Denver Center
Thu 11:26:05 PM 39.2578 -108.8464 250° West 410 472 38,000  Level Denver Center
Thu 11:27:06 PM 39.2122 -109.0028 249° West 415 478 38,000  Level Denver Center
Thu 11:28:08 PM 39.1731 -109.1381 250° West 418 481 38,000  Level Denver Center
Thu 11:29:09 PM 39.1264 -109.2939 249° West 416 479 38,000  Level Denver Center
Thu 11:30:11 PM 39.0872 -109.4300 250° West 422 486 38,000  Level Denver Center
Thu 11:31:12 PM 39.0528 -109.5417 248° West 422 486 38,000  Level Denver Center
Thu 11:32:14 PM 39.0008 -109.7233 250° West 425 489 38,000  Level Denver Center
Thu 11:33:15 PM 38.9600 -109.8592 249° West 426 490 38,000  Level Denver Center
Thu 11:34:10 PM 38.9031 -109.9847 240° Southwest 425 489 38,000  Level Salt Lake Center
Thu 11:35:18 PM 38.8267 -110.1261 235° Southwest 431 496 38,000  Level Denver Center
Thu 11:36:19 PM 38.7597 -110.2472 235° Southwest 433 498 38,000  Level Denver Center
Thu 11:37:33 PM 38.6839 -110.3878 235° Southwest 431 496 38,000  Level Denver Center
Thu 11:38:16 PM 38.6303 -110.4867 235° Southwest 428 493 38,000  Level Salt Lake Center
Thu 11:38:34 PM 38.6086 -110.5261 235° Southwest 426 490 38,000  Level Denver Center
Thu 11:39:17 PM 38.5561 -110.6289 237° Southwest 430 495 38,000  Level Salt Lake Center
Thu 11:40:19 PM 38.4908 -110.7483 235° Southwest 429 494 38,000 -488 Level Salt Lake Center
Thu 11:41:20 PM 38.4153 -110.8833 234° Southwest 420 483 37,000 -934 Descending Salt Lake Center
Thu 11:42:21 PM 38.3608 -110.9869 236° Southwest 412 474 36,100 -1,024 Descending Salt Lake Center
Thu 11:43:23 PM 38.2811 -111.1311 235° Southwest 415 478 34,900 -1,024 Descending Salt Lake Center
Thu 11:44:24 PM 38.2119 -111.2553 235° Southwest 429 494 34,000 -443 Descending Salt Lake Center
Thu 11:45:25 PM 38.1425 -111.3794 235° Southwest 431 496 34,000 -146 Level Salt Lake Center
Thu 11:46:27 PM 38.0753 -111.5042 236° Southwest 429 494 33,700 -634 Descending Salt Lake Center
Thu 11:47:28 PM 38.0067 -111.6244 234° Southwest 423 487 32,700 -829 Descending Salt Lake Center
Thu 11:48:30 PM 37.9367 -111.7447 234° Southwest 423 487 32,000 -341 Descending Salt Lake Center
Thu 11:49:31 PM 37.8656 -111.8703 234° Southwest 435 501 32,000  Level Salt Lake Center
Thu 11:50:32 PM 37.7942 -111.9969 235° Southwest 442 509 32,000  Level Salt Lake Center
Thu 11:51:34 PM 37.7242 -112.1225 235° Southwest 438 504 32,000  Level Salt Lake Center
Thu 11:52:35 PM 37.6394 -112.2717 234° Southwest 435 501 32,000  Level Salt Lake Center
Thu 11:53:37 PM 37.5694 -112.3933 234° Southwest 430 495 32,000  Level Salt Lake Center
Thu 11:54:38 PM 37.4964 -112.5194 234° Southwest 437 503 32,000  Level Salt Lake Center
Thu 11:55:39 PM 37.4222 -112.6472 234° Southwest 445 512 32,000 -49 Level Salt Lake Center
Thu 11:56:41 PM 37.3472 -112.7756 234° Southwest 447 514 31,900 -537 Descending Salt Lake Center
Thu 11:57:42 PM 37.2739 -112.9039 234° Southwest 449 517 30,900 -984 Descending Salt Lake Center
Thu 11:58:43 PM 37.1997 -113.0308 234° Southwest 448 516 29,900 -976 Descending Salt Lake Center
Thu 11:59:45 PM 37.1253 -113.1586 234° Southwest 451 519 28,900 -780 Descending Salt Lake Center
Fri 12:00:46 AM 37.0536 -113.2892 236° Southwest 453 521 28,300 -492 Descending Salt Lake Center
Fri 12:01:47 AM 36.9814 -113.4239 236° Southwest 462 532 27,900 -489 Descending Salt Lake Center
Fri 12:03:01 AM 36.8936 -113.5822 235° Southwest 463 533 27,200 -971 Descending Los Angeles Center
Fri 12:04:03 AM 36.8189 -113.7175 235° Southwest 472 543 25,700 -2,661 Descending Los Angeles Center
Fri 12:05:05 AM 36.7328 -113.8728 235° Southwest 456 525 21,700 -3,067 Descending Los Angeles Center
Fri 12:06:18 AM 36.6639 -113.9969 235° Southwest 440 506 18,800 -3,022 Descending Los Angeles Center
Fri 12:07:20 AM 36.5853 -114.1394 236° Southwest 422 486 14,900 -2,855 Descending Los Angeles Center
Fri 12:08:22 AM 36.5142 -114.2639 235° Southwest 409 471 12,900 -1,596 Descending Los Angeles Center
Fri 12:09:09 AM 36.4658 -114.3564 237° Southwest 395 455 12,000 -871 Descending Los Angeles Center
Fri 12:09:24 AM 36.4517 -114.3756 227° Southwest 398 458 12,000  Level Los Angeles Center
Fri 12:09:45 AM 36.4336 -114.4156 241° Southwest 348 400 12,000 -387 Level Los Angeles Center
Fri 12:10:26 AM 36.3850 -114.4417 203° Southwest 329 379 11,600 -885 Descending Los Angeles Center
Fri 12:10:46 AM 36.3533 -114.4536 197° South 307 353 11,100 -1,279 Descending Los Angeles Center
Fri 12:11:27 AM 36.3006 -114.4619 187° South 308 354 10,300 -1,343 Descending Los Angeles Center
Fri 12:11:53 AM 36.2628 -114.4739 194° South 302 348 9,600 -1,355 Descending Los Angeles Center
Fri 12:12:29 AM 36.2186 -114.4817 188° South 301 346 8,900 -1,180 Descending Los Angeles Center
Fri 12:12:54 AM 36.1847 -114.4925 194° South 290 334 8,400 -871 Descending Los Angeles Center
Fri 12:13:31 AM 36.1425 -114.5019 190° South 285 328 8,000 -400 Descending Los Angeles Center
Fri 12:13:54 AM 36.1258 -114.5497 247° West 279 321 8,000  Level Los Angeles Center
Fri 12:14:32 AM 36.1136 -114.5889 249° West 279 321 8,000  Level Los Angeles Center
Fri 12:14:55 AM 36.0983 -114.6389 249° West 277 319 8,000  Level Los Angeles Center
Fri 12:15:34 AM 36.0881 -114.6789 252° West 277 319 8,000  Level Los Angeles Center
Fri 12:15:50 AM 36.0753 -114.7211 249° West 273 314 8,000 -492 Level Los Angeles Center
Fri 12:16:35 AM 36.0728 -114.7869 267° West 273 314 7,500 -590 Descending Los Angeles Center
Fri 12:16:51 AM 36.0739 -114.8122 273° West 261 300 7,400 -677 Descending Los Angeles Center
Fri 12:17:37 AM 36.0742 -114.8661 270° West 250 288 6,800 -885 Descending Los Angeles Center
Fri 12:17:52 AM 36.0744 -114.8839 271° West 206 237 6,500 -1,548 Descending Los Angeles Center
Fri 12:18:39 AM 36.0739 -114.9253 269° West 208 239 5,200 -1,522 Descending Los Angeles Center
Fri 12:18:59 AM 36.0733 -114.9481 268° West 174 200 4,800 -984 Descending Los Angeles Center
Fri 12:19:40 AM 36.0739 -114.9856 271° West 185 213 4,200 -984 Descending Los Angeles Center
Fri 12:20:00 AM 36.0744 -115.0117 272° West 179 206 3,800 -968 Descending Los Angeles Center
Fri 12:20:42 AM 36.0744 -115.0436 270° West 176 203 3,200 -800 Descending Los Angeles Center
Fri 12:21:00 AM 36.0725 -115.0628 263° West 137 158 3,000 -689 Descending Los Angeles Center
Fri 12:21:43 AM 36.0733 -115.0900 272° West 158 182 2,500 -716 Descending Los Angeles Center
Fri 12:22:07 AM 36.0733 -115.1158 270° West 142 163 2,200 -581 Descending Los Angeles Center
Fri 12:22:45 AM 36.0744 -115.1369 274° West 145 167 1,900 -474 Descending Los Angeles Center
Fri 12:24:00 AM 36.0667 -115.1500 219° Southwest  Level FlightAware Approximate

Login

Don't have an account? Register now (free) for customized features, flight alerts, and more!